createdAt,value
2022-09-20T00:00:11.119Z,100.00
2022-09-20T00:03:13.669Z,100.00
2022-09-20T00:05:48.381Z,99.56
2022-09-20T00:08:20.269Z,100.00
2022-09-20T00:10:55.539Z,99.73
2022-09-20T00:13:27.211Z,99.63
2022-09-20T00:15:59.345Z,99.01
2022-09-20T00:18:30.877Z,98.71
2022-09-20T00:21:02.839Z,98.83
2022-09-20T00:23:34.569Z,99.03
2022-09-20T00:26:09.141Z,98.49
2022-09-20T00:28:40.730Z,98.57
2022-09-20T00:31:13.990Z,99.60
2022-09-20T00:33:57.971Z,99.39
2022-09-20T00:36:30.279Z,99.23
2022-09-20T00:39:04.341Z,98.57
2022-09-20T00:41:39.230Z,98.83
2022-09-20T00:44:41.041Z,98.66
2022-09-20T00:47:17.610Z,98.35
2022-09-20T00:49:49.820Z,99.40
2022-09-20T00:52:22.182Z,100.00
2022-09-20T00:54:54.309Z,100.00
2022-09-20T00:57:56.339Z,99.94
2022-09-20T01:00:30.092Z,99.72
2022-09-20T01:03:10.610Z,99.62
2022-09-20T01:05:44.492Z,99.27
2022-09-20T01:08:17.660Z,98.95
2022-09-20T01:10:50.219Z,98.91
2022-09-20T01:13:25.298Z,98.59
2022-09-20T01:15:59.282Z,99.09
2022-09-20T01:18:33.031Z,99.66
2022-09-20T01:21:07.160Z,98.86
2022-09-20T01:23:55.030Z,98.56
2022-09-20T01:26:53.679Z,98.51
2022-09-20T01:29:47.589Z,98.19
2022-09-20T01:32:24.176Z,97.87
2022-09-20T01:35:01.102Z,98.16
2022-09-20T01:37:39.263Z,98.14
2022-09-20T01:40:20.301Z,97.98
2022-09-20T01:43:06.013Z,98.33
2022-09-20T01:45:47.932Z,98.72
2022-09-20T01:48:31.121Z,98.73
2022-09-20T01:51:33.721Z,100.00
2022-09-20T01:54:36.719Z,100.00
2022-09-20T01:57:38.078Z,100.00
2022-09-20T02:00:15.359Z,100.00
2022-09-20T02:03:24.481Z,100.00
2022-09-20T02:06:30.571Z,100.00
2022-09-20T02:09:29.149Z,100.00
2022-09-20T02:12:21.069Z,100.00
2022-09-20T02:15:06.651Z,100.00
2022-09-20T02:17:48.440Z,100.00
2022-09-20T02:20:35.690Z,100.00
2022-09-20T02:23:24.410Z,100.00
2022-09-20T02:26:13.881Z,100.00
2022-09-20T02:28:56.850Z,100.00
2022-09-20T02:31:53.931Z,100.00
2022-09-20T02:34:54.410Z,100.00
2022-09-20T02:37:53.439Z,100.00
2022-09-20T02:40:38.537Z,100.00
2022-09-20T02:43:20.992Z,100.00
2022-09-20T02:46:04.556Z,100.00
2022-09-20T02:48:45.690Z,100.00
2022-09-20T02:51:27.739Z,100.00
2022-09-20T02:54:09.840Z,100.00
2022-09-20T02:56:51.260Z,100.00
2022-09-20T02:59:34.711Z,98.69
2022-09-20T03:02:19.237Z,99.21
2022-09-20T03:05:05.970Z,100.00
2022-09-20T03:07:49.453Z,100.00
2022-09-20T03:10:32.324Z,99.50
2022-09-20T03:13:20.843Z,99.86
2022-09-20T03:16:06.247Z,99.97
2022-09-20T03:18:47.021Z,100.00
2022-09-20T03:21:35.259Z,100.00
2022-09-20T03:24:21.350Z,100.00
2022-09-20T03:27:05.909Z,100.00
2022-09-20T03:29:59.739Z,100.00
2022-09-20T03:32:47.919Z,100.00
2022-09-20T03:35:38.140Z,100.00
2022-09-20T03:38:48.284Z,100.00
2022-09-20T03:41:37.392Z,100.00
2022-09-20T03:44:29.370Z,100.00
2022-09-20T03:47:13.480Z,99.79
2022-09-20T03:50:16.536Z,100.00
2022-09-20T03:53:04.349Z,100.00
2022-09-20T03:55:54.889Z,100.00
2022-09-20T03:58:42.581Z,100.00
2022-09-20T04:01:37.164Z,100.00
2022-09-20T04:04:22.960Z,100.00
2022-09-20T04:07:27.082Z,100.00
2022-09-20T04:10:30.830Z,100.00
2022-09-20T04:13:18.539Z,100.00
2022-09-20T04:16:13.470Z,100.00
2022-09-20T04:18:57.220Z,100.00
2022-09-20T04:21:38.080Z,100.00
2022-09-20T04:24:21.676Z,100.00
2022-09-20T04:26:58.949Z,100.00
2022-09-20T04:29:39.271Z,100.00
2022-09-20T04:32:19.599Z,100.00
2022-09-20T04:35:13.450Z,100.00
2022-09-20T04:37:48.070Z,100.00
2022-09-20T04:40:36.905Z,100.00
2022-09-20T04:43:52.111Z,100.00
2022-09-20T04:47:00.342Z,100.00
2022-09-20T04:50:21.860Z,100.00
2022-09-20T04:53:19.478Z,100.00
2022-09-20T04:55:59.180Z,100.00
2022-09-20T04:59:08.850Z,100.00
2022-09-20T05:02:22.619Z,100.00
2022-09-20T05:05:32.961Z,98.20
2022-09-20T05:08:48.900Z,98.78
2022-09-20T05:11:47.500Z,99.76
2022-09-20T05:14:40.060Z,99.63
2022-09-20T05:17:39.399Z,99.84
2022-09-20T05:20:34.539Z,100.00
2022-09-20T05:23:34.060Z,99.83
2022-09-20T05:26:11.859Z,99.09
2022-09-20T05:28:57.080Z,97.31
2022-09-20T05:31:40.691Z,99.04
2022-09-20T05:34:26.156Z,99.94
2022-09-20T05:37:09.881Z,98.61
2022-09-20T05:39:53.120Z,97.11
2022-09-20T05:42:37.724Z,94.88
2022-09-20T05:45:26.129Z,93.80
2022-09-20T05:48:03.200Z,95.25
2022-09-20T05:50:48.293Z,95.29
2022-09-20T05:53:52.282Z,96.65
2022-09-20T05:56:47.208Z,97.85
2022-09-20T05:59:41.519Z,96.32
2022-09-20T06:02:31.301Z,96.71
2022-09-20T06:05:07.821Z,96.76
2022-09-20T06:08:02.639Z,95.88
2022-09-20T06:10:54.161Z,96.39
2022-09-20T06:13:42.647Z,96.25
2022-09-20T06:16:20.855Z,95.54
2022-09-20T06:19:04.959Z,94.82
2022-09-20T06:21:46.640Z,95.17
2022-09-20T06:24:28.480Z,94.22
2022-09-20T06:27:03.180Z,92.85
2022-09-20T06:29:41.841Z,94.68
2022-09-20T06:32:13.859Z,95.75
2022-09-20T06:34:46.341Z,95.19
2022-09-20T06:37:46.801Z,93.00
2022-09-20T06:40:53.463Z,92.08
2022-09-20T06:43:25.281Z,92.40
2022-09-20T06:46:00.253Z,92.29
2022-09-20T06:48:35.583Z,92.08
2022-09-20T06:51:08.460Z,92.68
2022-09-20T06:53:44.262Z,91.71
2022-09-20T06:56:21.942Z,92.82
2022-09-20T06:58:54.875Z,91.84
2022-09-20T07:01:30.817Z,92.25
2022-09-20T07:04:03.224Z,90.93
2022-09-20T07:06:36.339Z,93.27
2022-09-20T07:09:09.100Z,93.94
2022-09-20T07:11:41.861Z,94.08
2022-09-20T07:14:15.899Z,92.83
2022-09-20T07:16:51.462Z,92.87
2022-09-20T07:19:24.274Z,92.49
2022-09-20T07:21:57.520Z,95.09
2022-09-20T07:24:31.501Z,95.19
2022-09-20T07:27:07.831Z,94.73
2022-09-20T07:29:41.313Z,93.38
2022-09-20T07:32:18.507Z,94.74
2022-09-20T07:34:51.074Z,93.66
2022-09-20T07:37:24.067Z,91.64
2022-09-20T07:39:56.955Z,92.03
2022-09-20T07:42:30.094Z,90.46
2022-09-20T07:45:03.100Z,88.27
2022-09-20T07:47:41.771Z,89.37
2022-09-20T07:50:13.356Z,89.02
2022-09-20T07:52:45.697Z,89.02
2022-09-20T07:55:18.285Z,87.21
2022-09-20T07:57:49.822Z,86.96
2022-09-20T08:00:21.601Z,85.97
2022-09-20T08:03:06.132Z,84.36
2022-09-20T08:05:37.163Z,87.22
2022-09-20T08:08:09.516Z,84.87
2022-09-20T08:10:41.711Z,84.48
2022-09-20T08:16:09.430Z,82.65
2022-09-20T08:18:49.629Z,81.21
2022-09-20T08:21:23.139Z,80.37
2022-09-20T08:23:55.537Z,77.99
2022-09-20T08:26:27.753Z,74.44
2022-09-20T08:29:02.126Z,73.80
2022-09-20T08:34:52.396Z,65.81
2022-09-20T08:37:25.437Z,63.22
2022-09-20T08:39:58.882Z,63.96
2022-09-20T08:42:39.041Z,64.02
2022-09-20T08:45:33.865Z,64.67
2022-09-20T08:48:14.416Z,59.64
2022-09-20T08:50:49.945Z,62.36
2022-09-20T08:53:22.984Z,59.23
2022-09-20T08:55:58.344Z,60.20
2022-09-20T08:58:31.309Z,61.64
2022-09-20T09:01:03.891Z,63.54
2022-09-20T09:03:37.470Z,60.90
2022-09-20T09:06:24.654Z,61.12
2022-09-20T09:09:02.131Z,62.03
2022-09-20T09:11:34.571Z,63.29
2022-09-20T09:14:31.712Z,60.53
2022-09-20T09:17:04.340Z,58.70
2022-09-20T09:19:47.781Z,57.10
2022-09-20T09:22:37.293Z,60.48
2022-09-20T09:25:13.535Z,56.72
2022-09-20T09:27:55.253Z,57.89
2022-09-20T09:30:31.616Z,56.95
2022-09-20T09:33:28.811Z,55.30
2022-09-20T09:36:08.296Z,58.99
2022-09-20T09:38:46.293Z,56.44
2022-09-20T09:41:30.195Z,55.08
2022-09-20T09:44:05.935Z,58.56
2022-09-20T09:46:40.774Z,64.86
2022-09-20T09:49:18.812Z,57.57
2022-09-20T09:52:07.133Z,57.61
2022-09-20T09:54:45.093Z,60.85
2022-09-20T09:57:29.550Z,62.83
2022-09-20T10:00:20.376Z,66.02
2022-09-20T10:03:26.811Z,67.38
2022-09-20T10:06:11.293Z,66.37
2022-09-20T10:08:55.094Z,63.81
2022-09-20T10:11:39.773Z,63.80
2022-09-20T10:14:25.898Z,60.28
2022-09-20T10:17:16.093Z,62.87
2022-09-20T10:20:13.563Z,64.11
2022-09-20T10:23:30.137Z,65.77
2022-09-20T10:25:56.660Z,65.80
2022-09-20T10:28:48.931Z,66.22
2022-09-20T10:31:39.612Z,61.00
2022-09-20T10:34:35.855Z,60.43
2022-09-20T10:37:21.060Z,60.28
2022-09-20T10:40:08.551Z,60.30
2022-09-20T10:43:00.859Z,61.06
2022-09-20T10:48:52.170Z,63.36
2022-09-20T10:51:39.771Z,62.59
2022-09-20T10:54:26.936Z,66.36
2022-09-20T10:57:14.972Z,68.44
2022-09-20T11:00:00.094Z,67.85
2022-09-20T11:03:04.095Z,66.51
2022-09-20T11:05:46.858Z,68.12
2022-09-20T11:08:23.338Z,68.82
2022-09-20T11:10:58.668Z,67.76
2022-09-20T11:13:38.929Z,67.67
2022-09-20T11:17:00.685Z,72.81
2022-09-20T11:19:51.051Z,73.06
2022-09-20T11:22:32.493Z,76.58
2022-09-20T11:25:20.869Z,81.72
2022-09-20T11:28:05.622Z,84.16
2022-09-20T11:30:47.241Z,91.50
2022-09-20T11:33:26.073Z,87.73
2022-09-20T11:36:06.500Z,89.21
2022-09-20T11:38:53.028Z,95.42
2022-09-20T11:41:30.473Z,94.05
2022-09-20T11:44:08.152Z,94.40
2022-09-20T11:46:48.720Z,93.22
2022-09-20T11:49:25.323Z,93.00
2022-09-20T11:52:29.313Z,91.06
2022-09-20T11:55:21.709Z,96.74
2022-09-20T11:58:08.669Z,92.44
2022-09-20T12:00:44.764Z,94.17
2022-09-20T12:03:32.057Z,91.87
2022-09-20T12:06:06.387Z,91.27
2022-09-20T12:08:44.428Z,92.35
2022-09-20T12:11:32.606Z,92.77
2022-09-20T12:14:08.193Z,93.71
2022-09-20T12:16:45.265Z,91.60
2022-09-20T12:19:39.176Z,93.34
2022-09-20T12:22:31.816Z,92.86
2022-09-20T12:25:33.455Z,90.71
2022-09-20T12:28:18.656Z,88.48
2022-09-20T12:30:50.856Z,88.13
2022-09-20T12:33:25.657Z,89.97
2022-09-20T12:36:17.938Z,88.16
2022-09-20T12:38:55.563Z,86.98
2022-09-20T12:41:30.458Z,85.20
2022-09-20T12:44:31.616Z,82.62
2022-09-20T12:47:06.748Z,83.04
2022-09-20T12:49:59.818Z,82.59
2022-09-20T12:52:58.860Z,80.98
2022-09-20T12:56:00.621Z,82.63
2022-09-20T12:58:45.568Z,85.99
2022-09-20T13:01:40.321Z,83.02
2022-09-20T13:04:43.754Z,81.99
2022-09-20T13:07:49.915Z,82.20
2022-09-20T13:10:30.562Z,80.27
2022-09-20T13:13:15.718Z,79.24
2022-09-20T13:15:55.154Z,78.79
2022-09-20T13:18:32.556Z,79.65
2022-09-20T13:21:08.641Z,80.37
2022-09-20T13:23:51.840Z,80.11
2022-09-20T13:26:30.606Z,82.04
2022-09-20T13:29:02.879Z,83.46
2022-09-20T13:31:39.740Z,82.94
2022-09-20T13:34:24.924Z,85.38
2022-09-20T13:37:01.650Z,81.49
2022-09-20T13:39:38.728Z,80.80
2022-09-20T13:42:20.367Z,79.91
2022-09-20T13:44:53.688Z,79.56
2022-09-20T13:47:31.571Z,77.81
2022-09-20T13:50:24.493Z,77.62
2022-09-20T13:52:59.447Z,78.10
2022-09-20T13:55:34.726Z,79.55
2022-09-20T13:58:10.149Z,77.49
2022-09-20T14:00:50.424Z,77.57
2022-09-20T14:03:24.308Z,76.39
2022-09-20T14:06:03.667Z,77.96
2022-09-20T14:08:40.948Z,76.70
2022-09-20T14:11:19.547Z,76.06
2022-09-20T14:13:54.477Z,76.23
2022-09-20T14:16:32.033Z,75.45
2022-09-20T14:19:08.438Z,74.50
2022-09-20T14:21:45.253Z,75.38
2022-09-20T14:24:35.879Z,72.68
2022-09-20T14:27:19.983Z,72.61
2022-09-20T14:29:53.822Z,72.59
2022-09-20T14:32:43.305Z,70.33
2022-09-20T14:35:23.437Z,71.67
2022-09-20T14:38:03.155Z,70.12
2022-09-20T14:40:45.116Z,69.65
2022-09-20T14:43:33.072Z,70.68
2022-09-20T14:46:08.035Z,70.87
2022-09-20T14:48:43.198Z,72.86
2022-09-20T14:51:25.760Z,71.71
2022-09-20T14:54:26.672Z,70.91
2022-09-20T14:57:02.117Z,68.81
2022-09-20T14:59:50.056Z,70.05
2022-09-20T15:02:23.125Z,69.16
2022-09-20T15:05:02.783Z,67.91
2022-09-20T15:07:35.674Z,68.22
2022-09-20T15:10:16.409Z,68.42
2022-09-20T15:12:49.014Z,69.38
2022-09-20T15:15:22.152Z,68.93
2022-09-20T15:18:08.675Z,68.86
2022-09-20T15:21:01.191Z,71.66
2022-09-20T15:23:33.634Z,72.90
2022-09-20T15:26:10.112Z,72.68
2022-09-20T15:28:45.836Z,72.34
2022-09-20T15:31:21.651Z,74.94
2022-09-20T15:33:54.235Z,74.84
2022-09-20T15:36:32.272Z,77.50
2022-09-20T15:39:05.442Z,80.04
2022-09-20T15:41:42.070Z,81.05
2022-09-20T15:44:14.871Z,82.91
2022-09-20T15:46:48.794Z,83.30
2022-09-20T15:49:22.159Z,85.99
2022-09-20T15:51:56.750Z,85.93
2022-09-20T15:54:29.439Z,87.89
2022-09-20T15:57:05.392Z,88.51
2022-09-20T15:59:38.148Z,89.31
2022-09-20T16:02:14.255Z,90.19
2022-09-20T16:04:47.031Z,90.16
2022-09-20T16:07:26.069Z,90.03
2022-09-20T16:10:01.194Z,92.21
2022-09-20T16:12:36.829Z,92.66
2022-09-20T16:15:10.958Z,93.16
2022-09-20T16:17:56.115Z,96.65
2022-09-20T16:20:28.678Z,95.82
2022-09-20T16:23:02.557Z,95.44
2022-09-20T16:25:35.269Z,95.92
2022-09-20T16:28:12.306Z,94.99
2022-09-20T16:31:08.049Z,94.32
2022-09-20T16:37:04.066Z,92.17
2022-09-20T16:39:58.449Z,91.78
2022-09-20T16:42:52.443Z,91.63
2022-09-20T16:45:29.261Z,92.17
2022-09-20T16:48:08.565Z,92.23
2022-09-20T16:50:47.936Z,92.47
2022-09-20T16:53:20.229Z,92.36
2022-09-20T16:55:56.310Z,93.04
2022-09-20T16:58:34.310Z,93.55
2022-09-20T17:01:11.938Z,93.53
2022-09-20T17:03:44.987Z,94.02
2022-09-20T17:06:26.858Z,93.96
2022-09-20T17:09:02.026Z,93.50
2022-09-20T17:11:37.316Z,94.12
2022-09-20T17:14:10.313Z,94.06
2022-09-20T17:16:56.810Z,94.25
2022-09-20T17:19:31.753Z,94.17
2022-09-20T17:22:04.314Z,94.65
2022-09-20T17:24:36.764Z,94.90
2022-09-20T17:27:09.834Z,94.95
2022-09-20T17:29:41.955Z,95.12
2022-09-20T17:32:14.493Z,94.93
2022-09-20T17:35:16.313Z,94.90
2022-09-20T17:37:50.794Z,95.25
2022-09-20T17:40:22.758Z,95.09
2022-09-20T17:42:55.233Z,95.90
2022-09-20T17:45:27.463Z,96.22
2022-09-20T17:48:00.287Z,96.05
2022-09-20T17:50:35.304Z,95.81
2022-09-20T17:53:11.431Z,95.63
2022-09-20T17:55:47.278Z,95.99
2022-09-20T17:58:19.916Z,95.96
2022-09-20T18:00:56.841Z,96.25
2022-09-20T18:03:29.960Z,95.58
2022-09-20T18:06:13.452Z,96.09
2022-09-20T18:08:50.195Z,95.75
2022-09-20T18:11:25.759Z,95.91
2022-09-20T18:13:58.437Z,96.11
2022-09-20T18:16:37.632Z,96.54
2022-09-20T18:19:14.581Z,96.70
2022-09-20T18:21:52.049Z,96.72
2022-09-20T18:24:26.270Z,97.13
2022-09-20T18:26:58.568Z,97.11
2022-09-20T18:29:36.997Z,97.37
2022-09-20T18:32:19.087Z,97.01
2022-09-20T18:34:53.295Z,97.17
2022-09-20T18:37:27.231Z,97.60
2022-09-20T18:39:58.666Z,97.61
2022-09-20T18:42:31.274Z,97.95
2022-09-20T18:45:02.966Z,97.71
2022-09-20T18:47:34.197Z,98.09
2022-09-20T18:50:06.951Z,98.28
2022-09-20T18:52:42.557Z,97.96
2022-09-20T18:55:15.898Z,98.10
2022-09-20T18:57:48.236Z,98.52
2022-09-20T19:00:21.319Z,98.36
2022-09-20T19:03:10.176Z,98.45
2022-09-20T19:05:54.214Z,98.89
2022-09-20T19:08:38.105Z,98.79
2022-09-20T19:11:30.297Z,98.87
2022-09-20T19:14:14.215Z,98.98
2022-09-20T19:16:53.158Z,98.58
2022-09-20T19:20:21.254Z,99.00
2022-09-20T19:27:43.341Z,98.50
2022-09-20T19:30:40.788Z,98.28
2022-09-20T19:33:20.561Z,98.56
2022-09-20T19:35:54.882Z,98.17
2022-09-20T19:38:38.495Z,98.14
2022-09-20T19:41:29.695Z,97.95
2022-09-20T19:44:21.738Z,98.09
2022-09-20T19:47:12.655Z,97.83
2022-09-20T19:49:53.852Z,98.06
2022-09-20T19:52:29.042Z,97.87
2022-09-20T19:55:02.106Z,98.15
2022-09-20T19:57:43.002Z,98.20
2022-09-20T20:00:20.631Z,98.32
2022-09-20T20:02:54.299Z,97.92
2022-09-20T20:05:28.008Z,98.20
2022-09-20T20:08:18.010Z,98.27
2022-09-20T20:11:00.042Z,98.74
2022-09-20T20:13:53.817Z,98.37
2022-09-20T20:16:36.844Z,98.43
2022-09-20T20:19:23.171Z,98.41
2022-09-20T20:22:01.041Z,98.40
2022-09-20T20:24:40.364Z,98.14
2022-09-20T20:27:12.445Z,98.26
2022-09-20T20:29:44.993Z,98.49
2022-09-20T20:32:19.758Z,98.52
2022-09-20T20:34:56.049Z,98.47
2022-09-20T20:37:28.667Z,98.31
2022-09-20T20:40:01.103Z,98.58
2022-09-20T20:42:33.974Z,98.27
2022-09-20T20:45:06.434Z,98.25
2022-09-20T20:47:42.932Z,98.37
2022-09-20T20:50:15.172Z,98.30
2022-09-20T20:52:47.053Z,98.38
2022-09-20T20:55:19.513Z,98.32
2022-09-20T20:57:58.662Z,98.22
2022-09-20T21:00:31.731Z,98.85
2022-09-20T21:03:06.694Z,98.63
2022-09-20T21:05:38.752Z,98.71
2022-09-20T21:08:11.773Z,98.65
2022-09-20T21:10:43.958Z,98.64
2022-09-20T21:13:16.212Z,98.78
2022-09-20T21:15:49.126Z,99.20
2022-09-20T21:18:23.794Z,99.21
2022-09-20T21:20:56.074Z,99.08
2022-09-20T21:23:27.935Z,99.08
2022-09-20T21:26:12.974Z,99.29
2022-09-20T21:28:49.143Z,99.09
2022-09-20T21:31:22.744Z,99.29
2022-09-20T21:33:57.274Z,99.27
2022-09-20T21:36:32.322Z,98.93
2022-09-20T21:39:04.144Z,99.22
2022-09-20T21:41:38.384Z,99.38
2022-09-20T21:44:12.503Z,99.06
2022-09-20T21:46:45.670Z,99.21
2022-09-20T21:49:20.102Z,99.83
2022-09-20T21:52:13.403Z,99.69
2022-09-20T21:54:46.841Z,99.79
2022-09-20T21:57:18.743Z,99.43
2022-09-20T21:59:50.787Z,99.59
2022-09-20T22:02:23.701Z,99.65
2022-09-20T22:04:58.362Z,99.47
2022-09-20T22:07:30.782Z,99.68
2022-09-20T22:10:02.642Z,99.92
2022-09-20T22:12:35.082Z,99.54
2022-09-20T22:15:07.190Z,99.89
2022-09-20T22:17:40.663Z,99.67
2022-09-20T22:20:15.603Z,99.96
2022-09-20T22:22:50.504Z,99.63
2022-09-20T22:25:22.823Z,99.47
2022-09-20T22:27:57.303Z,99.69
2022-09-20T22:30:29.630Z,100.00
2022-09-20T22:33:04.723Z,99.70
2022-09-20T22:35:47.503Z,100.00
2022-09-20T22:38:22.491Z,100.00
2022-09-20T22:41:00.505Z,100.00
2022-09-20T22:43:34.802Z,100.00
2022-09-20T22:46:08.382Z,100.00
2022-09-20T22:48:42.460Z,100.00
2022-09-20T22:51:19.761Z,100.00
2022-09-20T22:53:53.223Z,100.00
2022-09-20T22:56:29.330Z,100.00
2022-09-20T22:59:03.354Z,100.00
2022-09-20T23:01:42.973Z,100.00
2022-09-20T23:04:23.641Z,100.00
2022-09-20T23:06:58.543Z,100.00
2022-09-20T23:09:31.365Z,100.00
2022-09-20T23:12:03.501Z,100.00
2022-09-20T23:14:35.901Z,100.00
2022-09-20T23:17:08.202Z,100.00
2022-09-20T23:19:40.703Z,100.00
2022-09-20T23:22:15.863Z,100.00
2022-09-20T23:24:48.364Z,100.00
2022-09-20T23:27:20.429Z,100.00
2022-09-20T23:29:52.723Z,100.00
2022-09-20T23:32:24.943Z,100.00
2022-09-20T23:34:57.401Z,100.00
2022-09-20T23:37:32.165Z,100.00
2022-09-20T23:40:04.652Z,100.00
2022-09-20T23:42:36.701Z,100.00
2022-09-20T23:45:10.762Z,100.00
2022-09-20T23:47:42.761Z,100.00
2022-09-20T23:50:15.483Z,100.00
2022-09-20T23:52:50.363Z,100.00
2022-09-20T23:55:22.843Z,100.00
2022-09-20T23:57:59.084Z,100.00
